createdAt,value
2023-01-13T00:01:31.107Z,97040.63
2023-01-13T00:04:01.104Z,97046.78
2023-01-13T00:06:27.904Z,97021.41
2023-01-13T00:08:55.024Z,97017.19
2023-01-13T00:11:24.515Z,97027.16
2023-01-13T00:13:53.347Z,97022.56
2023-01-13T00:16:21.028Z,97016.41
2023-01-13T00:18:48.631Z,97008.34
2023-01-13T00:21:18.075Z,97012.94
2023-01-13T00:23:48.506Z,97019.09
2023-01-13T00:26:21.763Z,97005.63
2023-01-13T00:28:49.115Z,97011.00
2023-01-13T00:31:20.081Z,97003.69
2023-01-13T00:33:49.185Z,97001.41
2023-01-13T00:36:17.289Z,97001.41
2023-01-13T00:38:47.819Z,96992.91
2023-01-13T00:41:19.448Z,96989.47
2023-01-13T00:43:46.914Z,97007.56
2023-01-13T00:46:18.282Z,96996.00
2023-01-13T00:48:45.296Z,96998.31
2023-01-13T00:51:17.200Z,96995.63
2023-01-13T00:53:48.587Z,96991.78
2023-01-13T00:56:38.638Z,96990.22
2023-01-13T00:59:10.227Z,96985.63
2023-01-13T01:01:39.174Z,96984.06
2023-01-13T01:04:06.660Z,96990.22
2023-01-13T01:06:33.215Z,96992.53
2023-01-13T01:08:59.914Z,96987.50
2023-01-13T01:11:33.333Z,96984.06
2023-01-13T01:14:02.352Z,96985.59
2023-01-13T01:16:30.895Z,96989.44
2023-01-13T01:18:57.993Z,96992.53
2023-01-13T01:21:26.201Z,96980.97
2023-01-13T01:23:55.977Z,96972.50
2023-01-13T01:26:24.838Z,96973.28
2023-01-13T01:28:52.125Z,96969.84
2023-01-13T01:31:23.893Z,96964.41
2023-01-13T01:33:53.313Z,96973.31
2023-01-13T01:36:23.882Z,96983.69
2023-01-13T01:38:52.956Z,96971.00
2023-01-13T01:41:24.357Z,96988.69
2023-01-13T01:43:59.452Z,96987.53
2023-01-13T01:46:41.539Z,96989.09
2023-01-13T01:49:26.181Z,96984.06
2023-01-13T01:52:09.116Z,96979.81
2023-01-13T01:54:44.495Z,96978.69
2023-01-13T01:57:15.728Z,96982.91
2023-01-13T01:59:47.282Z,96971.00
2023-01-13T02:02:16.589Z,96987.53
2023-01-13T02:04:51.066Z,96982.16
2023-01-13T02:07:20.803Z,96979.47
2023-01-13T02:09:49.818Z,96978.28
2023-01-13T02:12:29.433Z,96972.13
2023-01-13T02:15:07.524Z,96976.72
2023-01-13T02:17:43.115Z,96980.94
2023-01-13T02:20:46.410Z,96984.38
2023-01-13T02:23:40.613Z,96977.06
2023-01-13T02:26:25.282Z,96975.56
2023-01-13T02:29:42.698Z,96978.63
2023-01-13T02:32:19.606Z,96980.94
2023-01-13T02:35:01.498Z,96972.84
2023-01-13T02:37:35.300Z,96965.94
2023-01-13T02:40:10.006Z,96969.38
2023-01-13T02:43:28.895Z,96962.06
2023-01-13T02:46:20.034Z,96957.06
2023-01-13T02:48:52.879Z,96956.31
2023-01-13T02:51:25.256Z,96953.22
2023-01-13T02:54:03.663Z,96955.91
2023-01-13T02:56:37.225Z,96960.13
2023-01-13T02:59:06.794Z,96954.72
2023-01-13T03:01:35.987Z,96962.06
2023-01-13T03:04:35.757Z,96953.19
2023-01-13T03:07:13.870Z,96952.03
2023-01-13T03:09:45.364Z,96950.88
2023-01-13T03:12:40.304Z,96945.91
2023-01-13T03:15:21.294Z,96946.66
2023-01-13T03:18:14.197Z,96950.50
2023-01-13T03:20:58.103Z,96937.00
2023-01-13T03:23:47.673Z,96951.25
2023-01-13T03:26:27.884Z,96950.88
2023-01-13T03:29:07.246Z,96950.88
2023-01-13T03:31:39.260Z,96937.00
2023-01-13T03:34:13.740Z,96937.78
2023-01-13T03:36:45.343Z,96944.31
2023-01-13T03:39:23.524Z,96929.69
2023-01-13T03:41:57.320Z,96936.59
2023-01-13T03:44:35.918Z,96939.28
2023-01-13T03:47:26.778Z,96947.75
2023-01-13T03:50:15.955Z,96923.06
2023-01-13T03:52:56.822Z,96938.47
2023-01-13T03:55:31.703Z,96940.78
2023-01-13T03:58:09.750Z,96930.78
2023-01-13T04:00:50.712Z,96926.91
2023-01-13T04:03:36.765Z,96932.34
2023-01-13T04:06:29.125Z,96930.81
2023-01-13T04:09:24.956Z,96925.41
2023-01-13T04:12:55.371Z,96931.19
2023-01-13T04:15:24.313Z,96920.44
2023-01-13T04:17:52.075Z,96928.16
2023-01-13T04:20:21.458Z,96925.47
2023-01-13T04:22:48.058Z,96927.00
2023-01-13T04:25:14.626Z,96924.69
2023-01-13T04:27:43.366Z,96935.88
2023-01-13T04:30:10.672Z,96933.59
2023-01-13T04:32:39.647Z,96936.28
2023-01-13T04:35:08.399Z,96928.59
2023-01-13T04:37:37.180Z,96932.44
2023-01-13T04:40:06.197Z,96933.19
2023-01-13T04:42:32.703Z,96932.44
2023-01-13T04:45:04.002Z,96933.59
2023-01-13T04:47:32.612Z,96926.66
2023-01-13T04:50:01.598Z,96934.75
2023-01-13T04:52:30.597Z,96931.66
2023-01-13T04:54:57.240Z,96922.84
2023-01-13T04:57:28.703Z,96915.91
2023-01-13T04:59:55.300Z,96917.06
2023-01-13T05:02:22.079Z,96924.00
2023-01-13T05:04:49.063Z,96922.84
2023-01-13T05:07:18.459Z,96926.69
2023-01-13T05:09:48.035Z,96910.50
2023-01-13T05:12:35.718Z,96914.72
2023-01-13T05:15:21.145Z,96911.66
2023-01-13T05:17:49.550Z,96912.41
2023-01-13T05:20:16.467Z,96921.28
2023-01-13T05:23:04.045Z,96920.13
2023-01-13T05:25:37.961Z,96923.97
2023-01-13T05:28:04.702Z,96910.50
2023-01-13T05:30:38.109Z,96920.13
2023-01-13T05:33:07.080Z,96912.03
2023-01-13T05:35:39.671Z,96924.72
2023-01-13T05:38:08.665Z,96912.41
2023-01-13T05:40:53.838Z,96918.97
2023-01-13T05:43:24.666Z,96912.03
2023-01-13T05:46:08.749Z,96917.41
2023-01-13T05:48:37.476Z,96908.19
2023-01-13T05:51:09.418Z,96908.94
2023-01-13T05:53:40.716Z,96905.88
2023-01-13T05:56:12.559Z,96912.41
2023-01-13T05:58:41.289Z,96912.03
2023-01-13T06:01:12.638Z,96913.56
2023-01-13T06:03:39.315Z,96907.00
2023-01-13T06:06:08.902Z,96907.38
2023-01-13T06:08:38.036Z,96915.44
2023-01-13T06:11:08.680Z,96916.59
2023-01-13T06:13:37.702Z,96913.13
2023-01-13T06:16:07.461Z,96899.28
2023-01-13T06:18:34.089Z,96906.97
2023-01-13T06:21:00.637Z,96905.44
2023-01-13T06:23:29.547Z,96909.25
2023-01-13T06:26:07.713Z,96911.22
2023-01-13T06:28:34.923Z,96909.28
2023-01-13T06:31:09.782Z,96906.22
2023-01-13T06:33:47.213Z,96915.84
2023-01-13T06:36:24.205Z,96905.81
2023-01-13T06:38:56.700Z,96913.16
2023-01-13T06:41:44.321Z,96909.28
2023-01-13T06:44:11.540Z,96915.84
2023-01-13T06:46:38.298Z,96918.53
2023-01-13T06:49:09.633Z,96915.06
2023-01-13T06:51:36.150Z,96915.06
2023-01-13T06:54:07.365Z,96918.53
2023-01-13T06:56:33.910Z,96910.06
2023-01-13T06:59:00.459Z,96917.38
2023-01-13T07:01:27.089Z,96915.06
2023-01-13T07:03:53.755Z,96917.75
2023-01-13T07:06:20.305Z,96916.22
2023-01-13T07:08:46.892Z,96916.59
2023-01-13T07:11:16.432Z,96915.44
2023-01-13T07:14:01.586Z,96919.31
2023-01-13T07:16:28.250Z,96915.84
2023-01-13T07:18:54.921Z,96922.00
2023-01-13T07:21:23.801Z,96917.75
2023-01-13T07:23:53.142Z,96922.00
2023-01-13T07:26:24.405Z,96928.94
2023-01-13T07:28:51.089Z,96930.84
2023-01-13T07:31:21.152Z,96935.09
2023-01-13T07:33:51.465Z,96930.81
2023-01-13T07:36:20.477Z,96933.91
2023-01-13T07:38:47.098Z,96937.41
2023-01-13T07:41:33.274Z,96933.94
2023-01-13T07:44:04.993Z,96935.84
2023-01-13T07:46:36.724Z,96947.78
2023-01-13T07:49:06.759Z,96956.66
2023-01-13T07:51:37.317Z,96950.88
2023-01-13T07:54:04.200Z,96955.50
2023-01-13T07:56:30.849Z,96947.78
2023-01-13T07:59:00.755Z,96951.66
2023-01-13T08:01:31.984Z,96954.34
2023-01-13T08:04:01.216Z,96965.50
2023-01-13T08:06:30.224Z,96976.28
2023-01-13T08:08:56.868Z,96968.97
2023-01-13T08:11:25.726Z,96970.50
2023-01-13T08:13:56.519Z,96970.50
2023-01-13T08:16:23.876Z,96982.06
2023-01-13T08:18:55.243Z,96984.75
2023-01-13T08:21:21.788Z,96985.91
2023-01-13T08:23:50.809Z,96980.13
2023-01-13T08:26:20.075Z,96982.41
2023-01-13T08:28:46.625Z,96980.88
2023-01-13T08:31:16.422Z,96963.50
2023-01-13T08:33:43.329Z,96981.63
2023-01-13T08:36:14.719Z,96973.94
2023-01-13T08:38:44.017Z,96984.28
2023-01-13T08:41:13.252Z,96969.66
2023-01-13T08:43:39.897Z,96975.38
2023-01-13T08:46:08.944Z,96977.97
2023-01-13T08:48:40.364Z,96970.47
2023-01-13T08:51:09.450Z,96968.78
2023-01-13T08:53:36.073Z,96968.31
2023-01-13T08:56:07.703Z,96987.97
2023-01-13T08:58:34.239Z,96981.34
2023-01-13T09:01:05.407Z,96982.91
2023-01-13T09:03:39.446Z,96986.28
2023-01-13T09:06:08.472Z,97001.41
2023-01-13T09:08:35.027Z,97001.88
2023-01-13T09:11:01.588Z,97011.22
2023-01-13T09:13:32.663Z,97012.41
2023-01-13T09:15:59.247Z,97010.91
2023-01-13T09:18:27.890Z,97017.88
2023-01-13T09:20:56.705Z,97013.97
2023-01-13T09:23:23.256Z,97020.13
2023-01-13T09:25:49.843Z,97015.44
2023-01-13T09:28:18.718Z,97013.59
2023-01-13T09:30:45.319Z,97016.34
2023-01-13T09:33:30.224Z,97014.03
2023-01-13T09:36:01.907Z,97029.06
2023-01-13T09:38:28.566Z,97022.91
2023-01-13T09:40:55.954Z,97020.56
2023-01-13T09:43:52.240Z,97025.47
2023-01-13T09:46:47.126Z,97022.94
2023-01-13T09:49:20.816Z,97018.41
2023-01-13T09:52:13.889Z,97028.66
2023-01-13T09:54:55.691Z,97036.63
2023-01-13T09:57:22.459Z,97020.13
2023-01-13T09:59:51.386Z,97025.94
2023-01-13T10:02:48.458Z,97035.78
2023-01-13T10:05:20.348Z,97028.94
2023-01-13T10:07:51.469Z,97039.22
2023-01-13T10:10:32.253Z,97044.75
2023-01-13T10:13:17.007Z,97047.53
2023-01-13T10:15:52.428Z,97047.63
2023-01-13T10:18:26.911Z,97035.31
2023-01-13T10:21:21.236Z,97046.53
2023-01-13T10:24:11.025Z,97052.69
2023-01-13T10:26:52.562Z,97050.44
2023-01-13T10:29:26.854Z,97021.53
2023-01-13T10:31:55.421Z,97043.50
2023-01-13T10:34:27.887Z,97045.41
2023-01-13T10:37:05.582Z,97034.59
2023-01-13T10:39:46.825Z,97033.81
2023-01-13T10:42:22.139Z,97041.16
2023-01-13T10:44:54.019Z,97031.06
2023-01-13T10:47:25.304Z,97039.09
2023-01-13T10:50:24.245Z,97060.69
2023-01-13T10:53:05.472Z,97048.03
2023-01-13T10:55:34.434Z,97056.06
2023-01-13T10:58:22.520Z,97070.31
2023-01-13T11:01:00.454Z,97081.50
2023-01-13T11:03:37.628Z,97074.97
2023-01-13T11:06:09.663Z,97074.97
2023-01-13T11:08:50.220Z,97070.34
2023-01-13T11:11:35.051Z,97071.84
2023-01-13T11:14:36.755Z,97074.91
2023-01-13T11:17:11.856Z,97067.25
2023-01-13T11:19:46.997Z,97054.53
2023-01-13T11:22:24.937Z,97065.69
2023-01-13T11:24:58.481Z,97068.41
2023-01-13T11:27:40.441Z,97061.06
2023-01-13T11:30:24.995Z,97063.38
2023-01-13T11:33:20.799Z,97055.47
2023-01-13T11:36:16.069Z,97057.34
2023-01-13T11:39:02.949Z,97049.94
2023-01-13T11:41:41.658Z,97044.06
2023-01-13T11:44:11.278Z,97034.44
2023-01-13T11:46:41.035Z,97025.66
2023-01-13T11:49:17.003Z,97029.56
2023-01-13T11:51:56.358Z,97049.97
2023-01-13T11:54:57.987Z,97027.50
2023-01-13T11:57:35.086Z,97017.84
2023-01-13T12:00:41.909Z,97022.91
2023-01-13T12:03:33.668Z,97025.31
2023-01-13T12:06:20.941Z,97023.72
2023-01-13T12:09:24.528Z,97020.66
2023-01-13T12:12:22.990Z,97032.56
2023-01-13T12:15:11.268Z,97028.63
2023-01-13T12:17:56.003Z,97026.28
2023-01-13T12:20:25.521Z,97013.56
2023-01-13T12:23:02.231Z,97022.34
2023-01-13T12:25:52.758Z,97018.59
2023-01-13T12:28:54.899Z,97030.66
2023-01-13T12:31:27.652Z,97026.47
2023-01-13T12:34:27.670Z,97038.88
2023-01-13T12:37:09.319Z,97043.06
2023-01-13T12:40:22.259Z,97033.38
2023-01-13T12:43:23.085Z,97038.56
2023-01-13T12:45:49.679Z,97027.88
2023-01-13T12:48:56.707Z,97012.81
2023-01-13T12:51:49.022Z,97014.78
2023-01-13T12:54:31.017Z,97017.94
2023-01-13T12:56:58.586Z,97016.47
2023-01-13T12:59:25.069Z,97020.38
2023-01-13T13:02:11.769Z,97031.56
2023-01-13T13:04:42.595Z,97042.81
2023-01-13T13:07:23.539Z,97027.75
2023-01-13T13:09:55.642Z,97022.00
2023-01-13T13:12:49.778Z,97026.38
2023-01-13T13:15:24.851Z,97023.63
2023-01-13T13:18:08.739Z,97026.63
2023-01-13T13:20:57.529Z,97017.78
2023-01-13T13:23:37.845Z,97025.47
2023-01-13T13:26:23.924Z,97018.13
2023-01-13T13:28:59.448Z,97032.00
2023-01-13T13:31:38.194Z,97032.03
2023-01-13T13:34:23.487Z,97025.13
2023-01-13T13:37:09.513Z,97024.03
2023-01-13T13:39:54.745Z,97021.16
2023-01-13T13:42:39.240Z,97023.81
2023-01-13T13:45:43.938Z,97021.88
2023-01-13T13:48:23.967Z,97030.44
2023-01-13T13:51:01.810Z,97036.25
2023-01-13T13:53:40.154Z,97048.22
2023-01-13T13:56:20.745Z,97051.38
2023-01-13T13:58:49.322Z,97050.53
2023-01-13T14:01:30.191Z,97051.38
2023-01-13T14:04:30.373Z,97048.63
2023-01-13T14:07:17.992Z,97039.72
2023-01-13T14:09:46.641Z,97049.00
2023-01-13T14:12:25.332Z,97051.28
2023-01-13T14:14:54.299Z,97047.88
2023-01-13T14:17:29.867Z,97045.53
2023-01-13T14:20:06.130Z,97051.63
2023-01-13T14:22:33.036Z,97045.63
2023-01-13T14:25:01.797Z,97060.75
2023-01-13T14:27:33.016Z,97073.47
2023-01-13T14:30:03.622Z,97068.41
2023-01-13T14:32:36.569Z,97077.63
2023-01-13T14:35:07.316Z,97069.88
2023-01-13T14:37:37.958Z,97076.38
2023-01-13T14:40:05.273Z,97086.78
2023-01-13T14:42:35.346Z,97078.28
2023-01-13T14:45:03.214Z,97088.75
2023-01-13T14:47:35.442Z,97098.03
2023-01-13T14:50:10.853Z,97091.47
2023-01-13T14:52:48.146Z,97101.88
2023-01-13T14:55:32.467Z,97113.88
2023-01-13T14:58:24.369Z,97132.91
2023-01-13T15:01:11.644Z,97141.81
2023-01-13T15:03:43.681Z,97139.13
2023-01-13T15:06:24.739Z,97138.75
2023-01-13T15:08:51.989Z,97141.84
2023-01-13T15:11:25.001Z,97146.09
2023-01-13T15:14:01.199Z,97153.44
2023-01-13T15:16:33.816Z,97147.69
2023-01-13T15:19:06.182Z,97150.41
2023-01-13T15:21:36.445Z,97162.41
2023-01-13T15:24:05.340Z,97165.47
2023-01-13T15:26:35.125Z,97173.19
2023-01-13T15:29:03.681Z,97179.03
2023-01-13T15:31:32.842Z,97192.09
2023-01-13T15:34:00.450Z,97196.75
2023-01-13T15:36:31.863Z,97213.75
2023-01-13T15:39:00.079Z,97211.47
2023-01-13T15:41:47.731Z,97214.16
2023-01-13T15:44:34.516Z,97209.16
2023-01-13T15:47:09.898Z,97208.00
2023-01-13T15:49:46.552Z,97225.78
2023-01-13T15:52:24.991Z,97224.63
2023-01-13T15:54:52.552Z,97220.78
2023-01-13T15:57:25.482Z,97225.81
2023-01-13T15:59:56.711Z,97232.72
2023-01-13T16:02:26.032Z,97224.63
2023-01-13T16:04:54.004Z,97218.09
2023-01-13T16:07:22.619Z,97227.72
2023-01-13T16:09:51.906Z,97227.72
2023-01-13T16:12:20.640Z,97230.44
2023-01-13T16:14:47.483Z,97230.41
2023-01-13T16:17:20.316Z,97242.34
2023-01-13T16:19:49.847Z,97238.91
2023-01-13T16:22:20.790Z,97246.59
2023-01-13T16:24:48.317Z,97259.31
2023-01-13T16:27:23.989Z,97260.47
2023-01-13T16:29:55.477Z,97267.41
2023-01-13T16:32:24.379Z,97274.34
2023-01-13T16:34:53.195Z,97282.41
2023-01-13T16:37:27.748Z,97278.19
2023-01-13T16:39:54.741Z,97281.28
2023-01-13T16:42:21.883Z,97283.59
2023-01-13T16:44:49.751Z,97299.38
2023-01-13T16:47:17.972Z,97298.59
2023-01-13T16:49:45.842Z,97307.44
2023-01-13T16:52:12.557Z,97317.06
2023-01-13T16:54:41.372Z,97307.41
2023-01-13T16:57:12.666Z,97307.41
2023-01-13T16:59:46.517Z,97319.75
2023-01-13T17:02:15.280Z,97323.56
2023-01-13T17:04:41.908Z,97313.94
2023-01-13T17:07:12.573Z,97311.25
2023-01-13T17:09:41.497Z,97315.50
2023-01-13T17:12:11.929Z,97322.78
2023-01-13T17:14:43.251Z,97311.63
2023-01-13T17:17:22.926Z,97315.47
2023-01-13T17:19:52.318Z,97323.16
2023-01-13T17:22:24.352Z,97321.97
2023-01-13T17:24:50.884Z,97329.31
2023-01-13T17:27:18.676Z,97331.16
2023-01-13T17:29:49.831Z,97343.06
2023-01-13T17:32:20.703Z,97325.00
2023-01-13T17:34:47.539Z,97340.78
2023-01-13T17:37:14.558Z,97341.16
2023-01-13T17:39:43.562Z,97350.78
2023-01-13T17:42:12.942Z,97349.19
2023-01-13T17:44:39.662Z,97359.19
2023-01-13T17:47:08.732Z,97354.56
2023-01-13T17:49:35.511Z,97355.34
2023-01-13T17:52:02.072Z,97345.66
2023-01-13T17:54:28.628Z,97349.53
2023-01-13T17:56:57.485Z,97346.03
2023-01-13T17:59:24.418Z,97344.47
2023-01-13T18:01:51.946Z,97349.47
2023-01-13T18:04:24.443Z,97345.22
2023-01-13T18:06:53.460Z,97356.38
2023-01-13T18:09:20.072Z,97359.06
2023-01-13T18:11:48.954Z,97358.69
2023-01-13T18:14:16.396Z,97357.91
2023-01-13T18:16:43.723Z,97363.34
2023-01-13T18:19:31.480Z,97367.56
2023-01-13T18:22:16.663Z,97369.13
2023-01-13T18:25:02.089Z,97377.19
2023-01-13T18:27:33.393Z,97393.38
2023-01-13T18:30:06.573Z,97393.06
2023-01-13T18:32:33.828Z,97381.91
2023-01-13T18:35:06.186Z,97386.88
2023-01-13T18:37:36.154Z,97387.28
2023-01-13T18:40:07.123Z,97394.63
2023-01-13T18:42:51.775Z,97394.59
2023-01-13T18:45:21.600Z,97403.03
2023-01-13T18:47:50.568Z,97401.50
2023-01-13T18:50:17.515Z,97401.50
2023-01-13T18:52:44.289Z,97409.13
2023-01-13T18:55:13.279Z,97407.59
2023-01-13T18:57:42.678Z,97425.63
2023-01-13T19:00:15.861Z,97424.84
2023-01-13T19:02:42.935Z,97423.66
2023-01-13T19:05:11.318Z,97426.00
2023-01-13T19:07:37.921Z,97430.22
2023-01-13T19:10:06.644Z,97436.41
2023-01-13T19:12:34.255Z,97435.63
2023-01-13T19:15:07.846Z,97454.47
2023-01-13T19:17:37.019Z,97454.47
2023-01-13T19:20:06.574Z,97451.88
2023-01-13T19:22:34.569Z,97464.56
2023-01-13T19:25:02.481Z,97463.03
2023-01-13T19:27:31.779Z,97464.56
2023-01-13T19:30:01.616Z,97457.75
2023-01-13T19:32:31.146Z,97456.97
2023-01-13T19:35:02.520Z,97475.78
2023-01-13T19:37:30.436Z,97471.16
2023-01-13T19:39:58.594Z,97467.69
2023-01-13T19:42:45.987Z,97471.50
2023-01-13T19:45:32.182Z,97476.53
2023-01-13T19:48:05.275Z,97470.72
2023-01-13T19:50:35.900Z,97482.28
2023-01-13T19:53:07.454Z,97474.91
2023-01-13T19:55:36.453Z,97491.47
2023-01-13T19:58:03.834Z,97496.75
2023-01-13T20:00:33.355Z,97510.97
2023-01-13T20:03:03.432Z,97509.78
2023-01-13T20:05:32.499Z,97520.22
2023-01-13T20:07:59.162Z,97521.44
2023-01-13T20:10:25.676Z,97531.00
2023-01-13T20:12:52.413Z,97527.47
2023-01-13T20:15:19.040Z,97545.19
2023-01-13T20:17:48.035Z,97541.78
2023-01-13T20:20:15.941Z,97542.66
2023-01-13T20:22:42.618Z,97547.03
2023-01-13T20:25:13.293Z,97549.16
2023-01-13T20:27:41.988Z,97553.41
2023-01-13T20:30:13.310Z,97548.66
2023-01-13T20:32:42.908Z,97551.69
2023-01-13T20:35:11.938Z,97551.50
2023-01-13T20:37:39.334Z,97554.25
2023-01-13T20:40:13.314Z,97559.63
2023-01-13T20:42:44.793Z,97560.41
2023-01-13T20:45:17.747Z,97551.56
2023-01-13T20:47:47.076Z,97558.13
2023-01-13T20:50:14.176Z,97555.78
2023-01-13T20:52:40.884Z,97568.09
2023-01-13T20:55:10.145Z,97570.41
2023-01-13T20:57:39.013Z,97579.31
2023-01-13T21:00:06.939Z,97573.97
2023-01-13T21:02:33.482Z,97570.50
2023-01-13T21:05:02.320Z,97569.78
2023-01-13T21:07:28.903Z,97592.91
2023-01-13T21:09:57.352Z,97590.59
2023-01-13T21:12:42.588Z,97599.84
2023-01-13T21:15:17.803Z,97603.28
2023-01-13T21:18:03.900Z,97612.97
2023-01-13T21:20:33.037Z,97609.94
2023-01-13T21:23:03.475Z,97613.72
2023-01-13T21:25:30.863Z,97609.53
2023-01-13T21:28:06.766Z,97607.63
2023-01-13T21:30:34.254Z,97600.31
2023-01-13T21:33:04.350Z,97603.38
2023-01-13T21:35:33.126Z,97597.63
2023-01-13T21:38:01.880Z,97609.13
2023-01-13T21:40:28.493Z,97602.22
2023-01-13T21:43:13.625Z,97601.47
2023-01-13T21:45:58.695Z,97601.75
2023-01-13T21:48:25.308Z,97611.81
2023-01-13T21:50:54.858Z,97613.31
2023-01-13T21:53:21.421Z,97614.88
2023-01-13T21:55:53.588Z,97607.16
2023-01-13T21:58:20.195Z,97614.81
2023-01-13T22:00:49.353Z,97626.19
2023-01-13T22:03:18.681Z,97624.66
2023-01-13T22:05:46.203Z,97615.84
2023-01-13T22:08:16.534Z,97625.09
2023-01-13T22:10:57.765Z,97624.34
2023-01-13T22:13:43.754Z,97620.53
2023-01-13T22:16:10.513Z,97628.22
2023-01-13T22:18:37.093Z,97627.81
2023-01-13T22:21:03.891Z,97624.34
2023-01-13T22:23:30.457Z,97628.16
2023-01-13T22:26:07.173Z,97630.81
2023-01-13T22:28:45.201Z,97629.19
2023-01-13T22:31:18.502Z,97633.75
2023-01-13T22:33:48.048Z,97630.97
2023-01-13T22:36:17.768Z,97627.47
2023-01-13T22:38:49.265Z,97637.84
2023-01-13T22:41:18.603Z,97646.22
2023-01-13T22:43:45.146Z,97643.88
2023-01-13T22:46:13.046Z,97651.97
2023-01-13T22:48:43.107Z,97639.34
2023-01-13T22:51:18.725Z,97644.34
2023-01-13T22:53:50.217Z,97640.91
2023-01-13T22:56:22.253Z,97640.91
2023-01-13T22:59:00.015Z,97637.44
2023-01-13T23:01:28.719Z,97633.59
2023-01-13T23:04:00.195Z,97638.19
2023-01-13T23:06:31.222Z,97638.97
2023-01-13T23:08:57.836Z,97635.16
2023-01-13T23:11:32.354Z,97628.22
2023-01-13T23:14:13.340Z,97627.44
2023-01-13T23:16:43.041Z,97630.50
2023-01-13T23:19:10.748Z,97624.69
2023-01-13T23:21:38.027Z,97624.28
2023-01-13T23:24:12.201Z,97618.88
2023-01-13T23:26:41.443Z,97620.03
2023-01-13T23:29:11.188Z,97621.16
2023-01-13T23:31:37.992Z,97619.19
2023-01-13T23:34:09.094Z,97619.97
2023-01-13T23:36:40.858Z,97616.44
2023-01-13T23:39:08.211Z,97622.25
2023-01-13T23:41:34.822Z,97615.31
2023-01-13T23:44:03.428Z,97610.72
2023-01-13T23:46:31.345Z,97611.47
2023-01-13T23:48:58.315Z,97607.66
2023-01-13T23:51:29.995Z,97607.66
2023-01-13T23:53:59.464Z,97603.41
2023-01-13T23:56:29.388Z,97595.75
2023-01-13T23:58:56.856Z,97597.22
